Time,TemperatureF,DewpointF,PressureIn,WindDirection,WindDirectionDegrees,WindSpeedMPH,WindSpeedGustMPH,Humidity,HourlyPrecipIn,Conditions,Clouds,dailyrainin,SoftwareType,DateUTC
2013-12-19 00:01:00,41.9,22.0,29.66,NNE,18,4.0,5.0,46,0.00,,,0.00,weatherlink.com 1.10,2013-12-19 07:01:00,
2013-12-19 00:16:00,42.3,23.0,29.65,NW,309,5.0,8.0,46,0.00,,,0.00,weatherlink.com 1.10,2013-12-19 07:16:00,
2013-12-19 00:31:00,41.6,22.0,29.64,NNE,22,6.0,6.0,46,0.00,,,0.00,weatherlink.com 1.10,2013-12-19 07:31:00,
2013-12-19 00:46:00,42.0,22.0,29.63,NNE,20,5.0,9.0,45,0.00,,,0.00,weatherlink.com 1.10,2013-12-19 07:46:00,
2013-12-19 01:01:00,40.1,22.0,29.63,North,11,4.0,6.0,48,0.00,,,0.00,weatherlink.com 1.10,2013-12-19 08:01:00,
2013-12-19 01:16:00,38.1,21.0,29.64,SSW,198,1.0,8.0,51,0.00,,,0.00,weatherlink.com 1.10,2013-12-19 08:16:00,
2013-12-19 01:31:00,36.8,22.0,29.64,North,11,0.0,3.0,55,0.00,,,0.00,weatherlink.com 1.10,2013-12-19 08:31:00,
2013-12-19 01:46:00,33.8,22.0,29.64,WNW,293,1.0,1.0,62,0.00,,,0.00,weatherlink.com 1.10,2013-12-19 08:46:00,
2013-12-19 02:01:00,33.5,22.0,29.63,NNE,16,0.0,2.0,63,0.00,,,0.00,weatherlink.com 1.10,2013-12-19 09:01:00,
2013-12-19 02:16:00,33.6,22.0,29.63,WNW,284,0.0,2.0,62,0.00,,,0.00,weatherlink.com 1.10,2013-12-19 09:16:00,
2013-12-19 02:31:00,32.5,21.0,29.63,North,355,0.0,1.0,63,0.00,,,0.00,weatherlink.com 1.10,2013-12-19 09:31:00,
2013-12-19 02:46:00,33.1,21.0,29.64,NW,308,0.0,3.0,62,0.00,,,0.00,weatherlink.com 1.10,2013-12-19 09:46:00,
2013-12-19 03:01:00,34.5,21.0,29.64,NE,34,0.0,2.0,59,0.00,,,0.00,weatherlink.com 1.10,2013-12-19 10:01:00,
2013-12-19 03:16:00,36.5,21.0,29.63,NE,35,0.0,1.0,54,0.00,,,0.00,weatherlink.com 1.10,2013-12-19 10:16:00,
2013-12-19 03:31:00,36.0,21.0,29.64,ESE,115,0.0,0.0,55,0.00,,,0.00,weatherlink.com 1.10,2013-12-19 10:31:00,
2013-12-19 03:46:00,36.3,21.0,29.63,NE,43,0.0,2.0,55,0.00,,,0.00,weatherlink.com 1.10,2013-12-19 10:46:00,
2013-12-19 04:01:00,35.1,21.0,29.64,NNE,28,0.0,6.0,57,0.00,,,0.00,weatherlink.com 1.10,2013-12-19 11:01:00,
2013-12-19 04:16:00,33.9,21.0,29.64,North,6,0.0,0.0,60,0.00,,,0.00,weatherlink.com 1.10,2013-12-19 11:16:00,
2013-12-19 04:31:00,33.3,22.0,29.63,SE,134,0.0,1.0,63,0.00,,,0.00,weatherlink.com 1.10,2013-12-19 11:31:00,
2013-12-19 04:46:00,33.0,22.0,29.63,ENE,72,0.0,3.0,64,0.00,,,0.00,weatherlink.com 1.10,2013-12-19 11:46:00,
2013-12-19 05:01:00,32.9,22.0,29.63,North,11,3.0,4.0,65,0.00,,,0.00,weatherlink.com 1.10,2013-12-19 12:01:00,
2013-12-19 05:16:00,32.7,23.0,29.65,NW,312,0.0,3.0,67,0.00,,,0.00,weatherlink.com 1.10,2013-12-19 12:16:00,
2013-12-19 05:31:00,32.3,24.0,29.66,WNW,284,1.0,5.0,70,0.00,,,0.00,weatherlink.com 1.10,2013-12-19 12:31:00,
2013-12-19 05:46:00,32.8,23.0,29.60,ESE,120,0.0,4.0,68,0.00,,,0.00,weatherlink.com 1.10,2013-12-19 12:46:00,
2013-12-19 06:01:00,32.5,23.0,29.59,NE,56,0.0,4.0,67,0.00,,,0.00,weatherlink.com 1.10,2013-12-19 13:01:00,
2013-12-19 06:17:00,32.1,23.0,29.60,NNE,19,4.0,7.0,68,0.00,,,0.00,weatherlink.com 1.10,2013-12-19 13:17:00,
2013-12-19 06:32:00,31.7,23.0,29.61,NNW,335,0.0,4.0,69,0.00,,,0.00,weatherlink.com 1.10,2013-12-19 13:32:00,
2013-12-19 06:47:00,30.6,22.0,29.59,ENE,58,0.0,4.0,71,0.00,,,0.00,weatherlink.com 1.10,2013-12-19 13:47:00,
2013-12-19 07:02:00,29.7,22.0,29.60,WNW,302,3.0,7.0,73,0.00,,,0.00,weatherlink.com 1.10,2013-12-19 14:02:00,
2013-12-19 07:17:00,28.6,22.0,29.61,NNE,14,0.0,3.0,76,0.00,,,0.00,weatherlink.com 1.10,2013-12-19 14:17:00,
2013-12-19 07:32:00,29.8,23.0,29.59,NNE,19,4.0,6.0,75,0.00,,,0.00,weatherlink.com 1.10,2013-12-19 14:32:00,
2013-12-19 07:47:00,29.5,23.0,29.59,NNE,18,0.0,4.0,76,0.00,,,0.00,weatherlink.com 1.10,2013-12-19 14:47:00,
2013-12-19 08:02:00,29.6,23.0,29.60,North,10,2.0,7.0,77,0.00,,,0.00,weatherlink.com 1.10,2013-12-19 15:02:00,
2013-12-19 08:17:00,30.5,23.0,29.61,NNE,24,0.0,2.0,75,0.00,,,0.00,weatherlink.com 1.10,2013-12-19 15:17:00,
2013-12-19 08:32:00,30.6,24.0,29.62,NNE,25,0.0,0.0,75,0.00,,,0.00,weatherlink.com 1.10,2013-12-19 15:32:00,
2013-12-19 08:47:00,31.1,24.0,29.61,SSE,149,0.0,0.0,76,0.00,,,0.00,weatherlink.com 1.10,2013-12-19 15:47:00,
2013-12-19 09:02:00,31.9,25.0,29.60,ESE,108,0.0,0.0,74,0.00,,,0.00,weatherlink.com 1.10,2013-12-19 16:02:00,
2013-12-19 09:17:00,31.5,24.0,29.61,ESE,115,0.0,0.0,73,0.00,,,0.00,weatherlink.com 1.10,2013-12-19 16:17:00,
2013-12-19 09:32:00,32.8,25.0,29.61,NE,44,0.0,0.0,74,0.00,,,0.00,weatherlink.com 1.10,2013-12-19 16:32:00,
2013-12-19 09:47:00,35.5,25.0,29.61,ESE,115,0.0,3.0,67,0.00,,,0.00,weatherlink.com 1.10,2013-12-19 16:47:00,
2013-12-19 10:02:00,37.2,26.0,29.62,East,93,0.0,3.0,64,0.00,,,0.00,weatherlink.com 1.10,2013-12-19 17:02:00,
2013-12-19 10:17:00,38.4,25.0,29.62,East,101,0.0,1.0,59,0.00,,,0.00,weatherlink.com 1.10,2013-12-19 17:17:00,
2013-12-19 10:32:00,37.9,25.0,29.61,ENE,61,0.0,2.0,60,0.00,,,0.00,weatherlink.com 1.10,2013-12-19 17:32:00,
2013-12-19 10:47:00,37.1,25.0,29.60,NNE,25,6.0,7.0,61,0.00,,,0.00,weatherlink.com 1.10,2013-12-19 17:47:00,
2013-12-19 11:02:00,37.5,25.0,29.59,ESE,105,0.0,3.0,61,0.00,,,0.00,weatherlink.com 1.10,2013-12-19 18:02:00,
2013-12-19 11:17:00,37.3,25.0,29.57,NNE,23,1.0,4.0,61,0.00,,,0.00,weatherlink.com 1.10,2013-12-19 18:17:00,
2013-12-19 11:32:00,37.5,25.0,29.57,ESE,103,0.0,6.0,61,0.00,,,0.00,weatherlink.com 1.10,2013-12-19 18:32:00,
2013-12-19 11:47:00,38.7,26.0,29.57,ENE,59,0.0,6.0,60,0.00,,,0.00,weatherlink.com 1.10,2013-12-19 18:47:00,
2013-12-19 12:02:00,40.6,25.0,29.57,NNE,23,0.0,4.0,54,0.00,,,0.00,weatherlink.com 1.10,2013-12-19 19:02:00,
2013-12-19 12:17:00,42.1,27.0,29.55,East,83,0.0,5.0,55,0.00,,,0.00,weatherlink.com 1.10,2013-12-19 19:17:00,
2013-12-19 12:32:00,44.6,26.0,29.55,NNE,12,0.0,4.0,49,0.00,,,0.00,weatherlink.com 1.10,2013-12-19 19:32:00,
2013-12-19 12:47:00,43.9,26.0,29.54,ESE,105,0.0,4.0,49,0.00,,,0.00,weatherlink.com 1.10,2013-12-19 19:47:00,
2013-12-19 13:02:00,44.6,26.0,29.54,North,5,0.0,2.0,49,0.00,,,0.00,weatherlink.com 1.10,2013-12-19 20:02:00,
2013-12-19 13:17:00,44.6,27.0,29.54,ESE,104,0.0,1.0,51,0.00,,,0.00,weatherlink.com 1.10,2013-12-19 20:17:00,
2013-12-19 13:32:00,44.1,26.0,29.54,ESE,117,0.0,2.0,50,0.00,,,0.00,weatherlink.com 1.10,2013-12-19 20:32:00,
2013-12-19 13:47:00,43.3,26.0,29.53,East,94,0.0,1.0,50,0.00,,,0.00,weatherlink.com 1.10,2013-12-19 20:47:00,
2013-12-19 14:02:00,42.9,26.0,29.54,NE,49,0.0,1.0,51,0.00,,,0.00,weatherlink.com 1.10,2013-12-19 21:02:00,
2013-12-19 14:17:00,41.5,26.0,29.56,NNE,25,4.0,7.0,54,0.00,,,0.00,weatherlink.com 1.10,2013-12-19 21:17:00,
2013-12-19 14:32:00,40.6,25.0,29.57,North,8,5.0,9.0,55,0.00,,,0.00,weatherlink.com 1.10,2013-12-19 21:32:00,
2013-12-19 14:47:00,40.4,25.0,29.59,NE,46,7.0,10.0,55,0.00,,,0.00,weatherlink.com 1.10,2013-12-19 21:47:00,
2013-12-19 15:02:00,39.5,25.0,29.60,NNE,13,5.0,7.0,57,0.00,,,0.00,weatherlink.com 1.10,2013-12-19 22:02:00,
2013-12-19 15:17:00,38.6,26.0,29.62,NNE,18,5.0,12.0,61,0.00,,,0.00,weatherlink.com 1.10,2013-12-19 22:17:00,
2013-12-19 15:32:00,37.1,27.0,29.64,NE,43,7.0,10.0,66,0.00,,,0.00,weatherlink.com 1.10,2013-12-19 22:32:00,
2013-12-19 15:47:00,35.3,26.0,29.66,NNE,20,3.0,11.0,70,0.00,,,0.00,weatherlink.com 1.10,2013-12-19 22:47:00,
2013-12-19 16:02:00,33.9,26.0,29.68,NE,36,12.0,15.0,72,0.00,,,0.00,weatherlink.com 1.10,2013-12-19 23:02:00,
2013-12-19 16:17:00,32.2,25.0,29.70,NE,36,9.0,11.0,75,0.00,,,0.00,weatherlink.com 1.10,2013-12-19 23:17:00,
2013-12-19 16:33:00,31.1,25.0,29.71,North,10,8.0,11.0,78,0.00,,,0.00,weatherlink.com 1.10,2013-12-19 23:33:00,
2013-12-19 16:48:00,29.7,23.0,29.73,NNE,20,10.0,13.0,77,0.00,,,0.00,weatherlink.com 1.10,2013-12-19 23:48:00,
2013-12-19 17:03:00,27.8,21.0,29.76,NNE,33,4.0,12.0,77,0.00,,,0.00,weatherlink.com 1.10,2013-12-20 00:03:00,
2013-12-19 17:18:00,25.9,20.0,29.78,ENE,62,12.0,15.0,79,0.00,,,0.00,weatherlink.com 1.10,2013-12-20 00:18:00,
2013-12-19 17:33:00,24.5,19.0,29.80,NNE,23,9.0,13.0,79,0.00,,,0.00,weatherlink.com 1.10,2013-12-20 00:33:00,
2013-12-19 17:48:00,22.7,18.0,29.82,WSW,245,4.0,14.0,81,0.00,,,0.00,weatherlink.com 1.10,2013-12-20 00:48:00,
2013-12-19 18:03:00,21.1,16.0,29.84,ENE,65,11.0,15.0,81,0.00,,,0.00,weatherlink.com 1.10,2013-12-20 01:03:00,
2013-12-19 18:18:00,20.2,16.0,29.86,NE,37,6.0,11.0,83,0.00,,,0.00,weatherlink.com 1.10,2013-12-20 01:18:00,
2013-12-19 18:33:00,19.2,14.0,29.88,East,88,10.0,12.0,80,0.00,,,0.00,weatherlink.com 1.10,2013-12-20 01:33:00,
2013-12-19 18:48:00,18.1,13.0,29.89,NNE,22,10.0,15.0,79,0.00,,,0.00,weatherlink.com 1.10,2013-12-20 01:48:00,
2013-12-19 19:03:00,17.6,12.0,29.89,NNE,13,15.0,15.0,78,0.00,,,0.00,weatherlink.com 1.10,2013-12-20 02:03:00,
2013-12-19 19:18:00,17.2,11.0,29.89,North,8,7.0,17.0,78,0.00,,,0.00,weatherlink.com 1.10,2013-12-20 02:18:00,
2013-12-19 19:33:00,17.0,12.0,29.90,North,5,7.0,17.0,79,0.00,,,0.00,weatherlink.com 1.10,2013-12-20 02:33:00,
2013-12-19 19:48:00,17.0,12.0,29.90,ESE,121,3.0,15.0,79,0.00,,,0.00,weatherlink.com 1.10,2013-12-20 02:48:00,
2013-12-19 20:03:00,17.0,11.0,29.90,SSE,163,3.0,12.0,78,0.00,,,0.00,weatherlink.com 1.10,2013-12-20 03:03:00,
2013-12-19 20:18:00,16.8,11.0,29.90,North,9,1.0,9.0,78,0.00,,,0.00,weatherlink.com 1.10,2013-12-20 03:18:00,
2013-12-19 20:33:00,17.0,11.0,29.91,ESE,110,1.0,10.0,77,0.00,,,0.00,weatherlink.com 1.10,2013-12-20 03:33:00,
2013-12-19 20:48:00,16.9,10.0,29.91,NNE,27,9.0,9.0,75,0.00,,,0.00,weatherlink.com 1.10,2013-12-20 03:48:00,
2013-12-19 21:03:00,17.0,10.0,29.91,North,6,1.0,6.0,74,0.00,,,0.00,weatherlink.com 1.10,2013-12-20 04:03:00,
2013-12-19 21:18:00,17.0,10.0,29.92,NNE,13,1.0,3.0,73,0.00,,,0.00,weatherlink.com 1.10,2013-12-20 04:18:00,
2013-12-19 21:33:00,17.1,10.0,29.92,ESE,120,0.0,0.0,72,0.00,,,0.00,weatherlink.com 1.10,2013-12-20 04:33:00,
2013-12-19 21:48:00,17.1,10.0,29.93,East,90,0.0,1.0,72,0.00,,,0.00,weatherlink.com 1.10,2013-12-20 04:48:00,
2013-12-19 22:04:00,16.9,9.0,29.94,East,91,0.0,2.0,72,0.00,,,0.00,weatherlink.com 1.10,2013-12-20 05:04:00,
2013-12-19 22:19:00,16.8,9.0,29.95,ESE,107,0.0,1.0,72,0.00,,,0.00,weatherlink.com 1.10,2013-12-20 05:19:00,
2013-12-19 22:34:00,16.7,9.0,29.95,ESE,122,0.0,3.0,72,0.00,,,0.00,weatherlink.com 1.10,2013-12-20 05:34:00,
2013-12-19 22:49:00,16.5,9.0,29.96,ESE,115,0.0,3.0,71,0.00,,,0.00,weatherlink.com 1.10,2013-12-20 05:49:00,
2013-12-19 23:04:00,16.3,9.0,29.95,South,174,0.0,2.0,73,0.00,,,0.00,weatherlink.com 1.10,2013-12-20 06:04:00,
2013-12-19 23:19:00,16.4,9.0,29.96,SE,133,0.0,2.0,74,0.00,,,0.00,weatherlink.com 1.10,2013-12-20 06:19:00,
2013-12-19 23:34:00,16.2,10.0,29.97,ESE,104,0.0,2.0,75,0.00,,,0.00,weatherlink.com 1.10,2013-12-20 06:34:00,
2013-12-19 23:49:00,16.1,10.0,29.96,SSW,195,1.0,3.0,76,0.00,,,0.00,weatherlink.com 1.10,2013-12-20 06:49:00,